Time;durP1;ratioP1;P1;durP2;ratioP2;P2;SDS_P1;SDS_P2;PMS_P1;PMS_P2;Temp;Humidity;BMP_temperature;BMP_pressure;BME280_temperature;BME280_humidity;BME280_pressure;Samples;Min_cycle;Max_cycle;Signal;HPM_P1;HPM_P2
2023/12/14 00:00:21;;;;;;;;;;;;;;;7.52;76.85;99026.34;5462953;32;34784;-70
2023/12/14 00:03:23;;;;;;;;;;;;;;;8.63;72.31;99027.75;5458220;32;34677;-68
2023/12/14 00:06:25;;;;;;;;;;;;;;;8.56;71.77;99029.84;5465063;32;35376;-68
2023/12/14 00:09:27;;;;;;;;;;;;;;;7.75;74.66;99017.41;5461710;32;35531;-70
2023/12/14 00:12:30;;;;;;;;;;;;;;;8.37;73.08;99019.50;5450931;32;34798;-69
2023/12/14 00:15:32;;;;;;;;;;;;;;;8.09;73.08;99008.69;5460953;32;34315;-69
2023/12/14 00:18:35;;;;;;;;;;;;;;;7.67;73.34;99024.78;5456587;32;34360;-74
2023/12/14 00:21:37;;;;;;;;;;;;;;;6.96;78.06;99030.72;5462730;32;35043;-70
2023/12/14 00:24:39;;;;;;;;;;;;;;;7.33;76.85;99022.00;5461498;32;34719;-69
2023/12/14 00:27:41;;;;;;;;;;;;;;;7.75;74.97;99033.09;5448232;32;34480;-71
2023/12/14 00:30:43;;;;;;;;;;;;;;;7.98;74.07;99039.78;5461099;32;34589;-70
2023/12/14 00:33:46;;;;;;;;;;;;;;;8.27;72.92;99048.81;5452118;32;34737;-67
2023/12/14 00:36:48;;;;;;;;;;;;;;;7.99;71.85;99062.44;5461824;32;34862;-69
2023/12/14 00:39:50;;;;;;;;;;;;;;;8.59;71.19;99068.97;5444088;32;34709;-69
2023/12/14 00:42:52;;;;;;;;;;;;;;;8.70;69.79;99076.28;5465092;32;34768;-68
2023/12/14 00:45:54;;;;;;;;;;;;;;;8.27;70.91;99088.06;5443200;32;35068;-69
2023/12/14 00:48:56;;;;;;;;;;;;;;;8.25;72.54;99105.62;5463304;32;34887;-70
2023/12/14 00:51:59;;;;;;;;;;;;;;;7.40;74.08;99118.41;5462682;32;34907;-69
2023/12/14 00:55:01;;;;;;;;;;;;;;;7.67;74.77;99127.62;5449804;32;34376;-71
2023/12/14 00:58:03;;;;;;;;;;;;;;;8.48;72.49;99128.91;5462023;32;34418;-69
2023/12/14 01:01:05;;;;;;;;;;;;;;;8.90;69.93;99125.03;5444471;32;35030;-69
2023/12/14 01:04:08;;;;;;;;;;;;;;;8.62;71.34;99147.37;5465632;32;35552;-70
2023/12/14 01:07:10;;;;;;;;;;;;;;;8.63;70.50;99151.72;5459887;32;34914;-69
2023/12/14 01:10:12;;;;;;;;;;;;;;;8.05;73.38;99146.72;5465195;32;34295;-71
2023/12/14 01:13:14;;;;;;;;;;;;;;;8.24;72.53;99151.03;5461226;32;35021;-71
2023/12/14 01:16:17;;;;;;;;;;;;;;;8.95;71.37;99147.44;5463942;32;34628;-68
2023/12/14 01:19:19;;;;;;;;;;;;;;;8.19;73.14;99147.81;5448468;32;34575;-69
2023/12/14 01:22:21;;;;;;;;;;;;;;;8.09;73.71;99116.84;5442752;32;34894;-72
2023/12/14 01:25:23;;;;;;;;;;;;;;;8.44;72.47;99097.69;5465300;32;35374;-68
2023/12/14 01:28:26;;;;;;;;;;;;;;;7.80;75.70;99099.09;5446025;32;35422;-69
2023/12/14 01:31:28;;;;;;;;;;;;;;;7.16;76.35;99092.50;5464572;32;34951;-70
2023/12/14 01:34:30;;;;;;;;;;;;;;;7.49;76.06;99079.66;5461750;32;34734;-72
2023/12/14 01:37:32;;;;;;;;;;;;;;;7.56;76.55;99086.28;5465178;32;34460;-70
2023/12/14 01:40:35;;;;;;;;;;;;;;;7.80;75.50;99076.41;5462185;32;34249;-71
2023/12/14 01:43:37;;;;;;;;;;;;;;;8.07;74.75;99086.44;5461005;32;34236;-69
2023/12/14 01:46:39;;;;;;;;;;;;;;;8.67;71.30;99081.66;5448921;32;35538;-71
2023/12/14 01:49:41;;;;;;;;;;;;;;;8.84;71.33;99071.16;5457469;32;37286;-69
2023/12/14 01:52:43;;;;;;;;;;;;;;;9.07;70.47;99058.59;5463409;32;34472;-68
2023/12/14 01:55:46;;;;;;;;;;;;;;;8.64;71.50;99061.72;5461025;32;34564;-71
2023/12/14 01:58:48;;;;;;;;;;;;;;;8.25;72.18;99071.59;5464233;32;34378;-71
2023/12/14 02:01:55;;;;;;;;;;;;;;;8.28;73.09;99076.66;5446789;32;35079;-68
2023/12/14 02:04:59;;;;;;;;;;;;;;;8.26;72.01;99083.75;5460993;32;36365;-71
2023/12/14 02:08:01;;;;;;;;;;;;;;;6.94;78.63;99107.44;5449307;32;35000;-71
2023/12/14 02:11:03;;;;;;;;;;;;;;;7.83;75.71;99114.66;5460194;32;34798;-68
2023/12/14 02:14:05;;;;;;;;;;;;;;;8.44;73.11;99119.53;5465279;32;35292;-71
2023/12/14 02:17:08;;;;;;;;;;;;;;;8.59;72.29;99123.13;5460302;32;35406;-70
2023/12/14 02:20:10;;;;;;;;;;;;;;;8.35;72.73;99112.09;5462287;32;35524;-69
2023/12/14 02:23:13;;;;;;;;;;;;;;;7.65;75.97;99105.06;5462072;32;34951;-69
2023/12/14 02:26:15;;;;;;;;;;;;;;;7.27;77.03;99111.13;5459501;32;35121;-71
2023/12/14 02:29:17;;;;;;;;;;;;;;;7.22;76.72;99097.47;5464528;32;34467;-71
2023/12/14 02:32:19;;;;;;;;;;;;;;;8.35;72.42;99096.38;5459510;32;35492;-73
2023/12/14 02:35:24;;;;;;;;;;;;;;;8.13;72.11;99113.16;5463735;32;34463;-73
2023/12/14 02:38:26;;;;;;;;;;;;;;;7.19;75.94;99113.25;5459647;32;34378;-71
2023/12/14 02:41:29;;;;;;;;;;;;;;;7.58;74.92;99107.13;5461038;32;34912;-70
2023/12/14 02:44:31;;;;;;;;;;;;;;;6.65;79.58;99129.63;5448125;32;35189;-69
2023/12/14 02:47:33;;;;;;;;;;;;;;;8.15;72.97;99137.47;5444054;32;35849;-69
2023/12/14 02:50:35;;;;;;;;;;;;;;;7.70;73.88;99134.47;5461916;32;35004;-71
2023/12/14 02:53:37;;;;;;;;;;;;;;;7.03;76.52;99130.56;5459938;32;35139;-69
2023/12/14 02:56:39;;;;;;;;;;;;;;;7.38;77.48;99112.44;5463719;32;35570;-69
2023/12/14 02:59:41;;;;;;;;;;;;;;;7.59;75.54;99114.88;5460025;32;34779;-72
2023/12/14 03:02:44;;;;;;;;;;;;;;;7.68;74.91;99102.31;5460750;32;34256;-72
2023/12/14 03:05:46;;;;;;;;;;;;;;;7.58;75.20;99097.50;5463881;32;34809;-71
2023/12/14 03:08:48;;;;;;;;;;;;;;;7.25;77.03;99101.69;5460435;32;35140;-69
2023/12/14 03:11:50;;;;;;;;;;;;;;;8.11;74.40;99101.94;5462339;32;34837;-68
2023/12/14 03:14:52;;;;;;;;;;;;;;;8.27;72.86;99106.38;5459242;32;34440;-69
2023/12/14 03:17:54;;;;;;;;;;;;;;;8.44;72.52;99111.66;5462763;32;34774;-71
2023/12/14 03:20:56;;;;;;;;;;;;;;;8.37;72.38;99123.34;5459315;32;34204;-69
2023/12/14 03:23:58;;;;;;;;;;;;;;;8.64;71.07;99129.84;5460274;32;34698;-70
2023/12/14 03:27:04;;;;;;;;;;;;;;;8.65;70.57;99126.28;5463440;32;34766;-70
2023/12/14 03:30:09;;;;;;;;;;;;;;;8.84;69.99;99135.81;5459554;32;35216;-68
2023/12/14 03:33:12;;;;;;;;;;;;;;;8.78;70.26;99151.84;5463098;32;37010;-71
2023/12/14 03:36:14;;;;;;;;;;;;;;;7.96;72.91;99172.47;5459416;32;34862;-70
2023/12/14 03:39:16;;;;;;;;;;;;;;;6.95;76.93;99175.28;5464162;32;34647;-69
2023/12/14 03:42:19;;;;;;;;;;;;;;;8.22;73.92;99185.13;5461094;32;35406;-71
2023/12/14 03:45:21;;;;;;;;;;;;;;;7.67;75.34;99171.22;5461483;32;34405;-70
2023/12/14 03:48:23;;;;;;;;;;;;;;;8.79;70.54;99185.81;5462778;32;34419;-70
2023/12/14 03:51:25;;;;;;;;;;;;;;;7.47;74.65;99208.72;5456477;32;34725;-73
2023/12/14 03:54:27;;;;;;;;;;;;;;;8.09;74.79;99200.59;5464572;32;34760;-72
2023/12/14 03:57:30;;;;;;;;;;;;;;;8.44;71.85;99203.31;5460981;32;34273;-69
2023/12/14 04:00:32;;;;;;;;;;;;;;;8.24;72.72;99203.38;5465392;32;35521;-68
2023/12/14 04:03:34;;;;;;;;;;;;;;;8.36;71.54;99202.81;5462174;32;34721;-71
2023/12/14 04:06:37;;;;;;;;;;;;;;;8.29;73.25;99214.47;5434529;32;34939;-69
2023/12/14 04:09:39;;;;;;;;;;;;;;;8.23;72.92;99213.00;5447483;32;34267;-71
2023/12/14 04:12:41;;;;;;;;;;;;;;;7.93;74.64;99214.47;5445575;32;34585;-70
2023/12/14 04:16:03;;;;;;;;;;;;;;;8.29;73.59;99219.72;5465454;32;35231;-71
2023/12/14 04:19:30;;;;;;;;;;;;;;;8.93;70.34;99222.66;5458230;32;34982;-71
2023/12/14 04:22:44;;;;;;;;;;;;;;;8.48;72.05;99223.16;5445922;32;34959;-69
2023/12/14 04:25:55;;;;;;;;;;;;;;;8.23;71.93;99228.72;5437254;32;34960;-70
2023/12/14 04:28:57;;;;;;;;;;;;;;;9.01;69.51;99230.13;5447473;32;35561;-73
2023/12/14 04:31:59;;;;;;;;;;;;;;;8.42;71.79;99228.69;5464861;32;35111;-70
2023/12/14 04:35:02;;;;;;;;;;;;;;;8.27;72.00;99229.41;5461231;32;35654;-70
2023/12/14 04:38:04;;;;;;;;;;;;;;;8.94;69.93;99221.72;5464527;32;34892;-69
2023/12/14 04:41:15;;;;;;;;;;;;;;;9.00;68.38;99225.81;5463268;32;35497;-73
2023/12/14 04:44:17;;;;;;;;;;;;;;;8.10;72.39;99223.22;5447105;32;35044;-73
2023/12/14 04:47:19;;;;;;;;;;;;;;;7.82;73.89;99228.03;5462468;32;34431;-69
2023/12/14 04:50:22;;;;;;;;;;;;;;;7.34;75.24;99234.56;5458850;32;34863;-69
2023/12/14 04:53:24;;;;;;;;;;;;;;;8.43;72.33;99246.09;5436178;32;34927;-71
2023/12/14 04:56:26;;;;;;;;;;;;;;;8.10;71.86;99253.75;5460981;32;35062;-71
2023/12/14 04:59:29;;;;;;;;;;;;;;;7.71;74.75;99251.22;5461051;32;34684;-71
2023/12/14 05:02:31;;;;;;;;;;;;;;;8.36;72.41;99248.16;5464029;32;35271;-69
2023/12/14 05:05:34;;;;;;;;;;;;;;;7.76;73.31;99249.25;5460743;32;35389;-69
2023/12/14 05:08:36;;;;;;;;;;;;;;;7.38;74.67;99264.88;5450571;32;34366;-71
2023/12/14 05:11:52;;;;;;;;;;;;;;;7.13;76.79;99262.47;5460730;32;34478;-72
2023/12/14 05:15:11;;;;;;;;;;;;;;;6.44;80.72;99269.69;5434627;32;34394;-71
2023/12/14 05:18:13;;;;;;;;;;;;;;;7.13;77.91;99274.69;5462057;32;35438;-69
2023/12/14 05:21:18;;;;;;;;;;;;;;;7.03;78.91;99275.09;5459906;32;35453;-69
2023/12/14 05:24:21;;;;;;;;;;;;;;;6.48;81.11;99271.28;5464935;32;34271;-70
2023/12/14 05:27:23;;;;;;;;;;;;;;;6.88;79.76;99280.09;5461233;32;34921;-70
2023/12/14 05:30:26;;;;;;;;;;;;;;;7.07;78.38;99284.50;5464713;32;34311;-72
2023/12/14 05:33:28;;;;;;;;;;;;;;;7.39;76.40;99294.47;5460470;32;34928;-70
2023/12/14 05:36:31;;;;;;;;;;;;;;;6.90;77.71;99294.81;5446335;32;35583;-71
2023/12/14 05:39:33;;;;;;;;;;;;;;;7.58;75.94;99296.22;5448985;32;35125;-69
2023/12/14 05:42:35;;;;;;;;;;;;;;;7.60;75.50;99307.50;5461101;32;35066;-73
2023/12/14 05:45:37;;;;;;;;;;;;;;;7.24;76.00;99314.31;5451197;32;34358;-69
2023/12/14 05:48:40;;;;;;;;;;;;;;;6.99;76.50;99325.78;5458327;32;34316;-71
2023/12/14 05:51:42;;;;;;;;;;;;;;;6.91;77.89;99335.69;5463961;32;35187;-72
2023/12/14 05:54:44;;;;;;;;;;;;;;;7.09;77.63;99344.53;5461368;32;34358;-68
2023/12/14 05:57:49;;;;;;;;;;;;;;;7.57;75.36;99341.59;5460587;32;35016;-71
2023/12/14 06:00:51;;;;;;;;;;;;;;;7.43;76.02;99345.72;5447805;32;34380;-72
2023/12/14 06:03:53;;;;;;;;;;;;;;;7.50;75.28;99353.25;5459939;32;35546;-70
2023/12/14 06:06:55;;;;;;;;;;;;;;;6.21;80.48;99351.50;5466081;32;34461;-71
2023/12/14 06:09:57;;;;;;;;;;;;;;;7.37;76.75;99356.44;5446103;32;34495;-71
2023/12/14 06:12:59;;;;;;;;;;;;;;;6.98;77.45;99359.81;5449373;32;34715;-68
2023/12/14 06:16:01;;;;;;;;;;;;;;;7.69;74.89;99357.69;5446672;32;35043;-66
2023/12/14 06:19:03;;;;;;;;;;;;;;;7.96;74.00;99346.00;5447050;32;34956;-68
2023/12/14 06:22:05;;;;;;;;;;;;;;;7.49;75.41;99356.78;5451089;32;35064;-71
2023/12/14 06:25:07;;;;;;;;;;;;;;;7.71;74.49;99367.16;5462034;32;35482;-72
2023/12/14 06:28:09;;;;;;;;;;;;;;;8.29;73.36;99361.06;5461424;32;34510;-72
2023/12/14 06:31:12;;;;;;;;;;;;;;;8.36;72.44;99363.38;5458990;32;35626;-70
2023/12/14 06:34:14;;;;;;;;;;;;;;;8.91;68.93;99354.69;5449999;32;32971;-71
2023/12/14 06:37:16;;;;;;;;;;;;;;;7.85;71.94;99382.22;5462452;32;34430;-72
2023/12/14 06:40:19;;;;;;;;;;;;;;;7.99;71.93;99376.41;5445578;32;35285;-71
2023/12/14 06:43:21;;;;;;;;;;;;;;;8.21;72.00;99371.91;5463595;32;34780;-68
2023/12/14 06:46:23;;;;;;;;;;;;;;;7.93;72.10;99372.31;5458425;32;34744;-68
2023/12/14 06:49:25;;;;;;;;;;;;;;;7.91;72.54;99379.34;5449855;32;34633;-73
2023/12/14 06:52:27;;;;;;;;;;;;;;;7.44;74.54;99386.63;5458046;32;34817;-66
2023/12/14 06:55:29;;;;;;;;;;;;;;;7.68;73.62;99390.84;5444055;32;35374;-72
2023/12/14 06:58:31;;;;;;;;;;;;;;;7.69;74.16;99394.28;5451363;32;35286;-74
2023/12/14 07:01:33;;;;;;;;;;;;;;;7.86;74.03;99389.19;5454393;32;35019;-71
2023/12/14 07:04:35;;;;;;;;;;;;;;;7.84;72.89;99409.31;5433775;32;34346;-75
2023/12/14 07:07:37;;;;;;;;;;;;;;;8.13;73.35;99414.13;5455650;32;34417;-69
2023/12/14 07:10:41;;;;;;;;;;;;;;;8.11;72.88;99413.38;5443462;32;34308;-76
2023/12/14 07:13:44;;;;;;;;;;;;;;;8.37;71.74;99414.84;5454080;32;35220;-68
2023/12/14 07:16:46;;;;;;;;;;;;;;;8.17;72.77;99422.69;5447207;32;34895;-68
2023/12/14 07:19:48;;;;;;;;;;;;;;;8.20;72.40;99433.03;5458892;32;34897;-70
2023/12/14 07:22:50;;;;;;;;;;;;;;;8.92;70.05;99427.13;5458969;32;34936;-70
2023/12/14 07:25:52;;;;;;;;;;;;;;;9.34;67.31;99433.84;5462059;32;34206;-68
2023/12/14 07:28:59;;;;;;;;;;;;;;;9.03;67.87;99444.97;5458399;32;35340;-67
2023/12/14 07:32:01;;;;;;;;;;;;;;;8.73;69.25;99450.72;5462139;32;34008;-70
2023/12/14 07:35:03;;;;;;;;;;;;;;;8.39;71.46;99451.41;5456706;32;35600;-66
2023/12/14 07:38:06;;;;;;;;;;;;;;;8.94;69.87;99456.72;5456524;32;34250;-72
2023/12/14 07:41:08;;;;;;;;;;;;;;;8.60;70.62;99463.53;5441641;32;35329;-68
2023/12/14 07:44:10;;;;;;;;;;;;;;;8.54;70.29;99458.56;5456403;32;34277;-69
2023/12/14 07:47:13;;;;;;;;;;;;;;;8.88;70.13;99465.72;5461813;32;35612;-70
2023/12/14 07:50:15;;;;;;;;;;;;;;;8.31;72.91;99479.69;5459228;32;35808;-65
2023/12/14 07:53:18;;;;;;;;;;;;;;;9.30;68.93;99472.47;5461188;32;35451;-76
2023/12/14 07:56:25;;;;;;;;;;;;;;;9.60;67.16;99479.78;5461661;32;35251;-76
2023/12/14 07:59:29;;;;;;;;;;;;;;;9.54;67.39;99483.56;5462271;32;34787;-66
2023/12/14 08:02:32;;;;;;;;;;;;;;;8.76;69.51;99489.91;5460116;32;35365;-70
2023/12/14 08:05:34;;;;;;;;;;;;;;;9.07;68.53;99491.06;5453725;32;35125;-83
2023/12/14 08:08:39;;;;;;;;;;;;;;;8.92;69.38;99488.25;5454801;32;34284;-70
2023/12/14 08:11:42;;;;;;;;;;;;;;;8.84;69.48;99498.25;5462329;32;35247;-83
2023/12/14 08:14:46;;;;;;;;;;;;;;;9.35;68.37;99506.34;5462011;32;36901;-74
2023/12/14 08:17:48;;;;;;;;;;;;;;;9.56;66.72;99510.56;5455827;32;35649;-69
2023/12/14 08:20:55;;;;;;;;;;;;;;;9.73;65.55;99509.75;5440653;32;35046;-70
2023/12/14 08:23:57;;;;;;;;;;;;;;;8.68;69.02;99519.03;5446927;32;33457;-73
2023/12/14 08:26:59;;;;;;;;;;;;;;;8.72;68.66;99514.53;5454544;32;34880;-73
2023/12/14 08:30:01;;;;;;;;;;;;;;;8.03;71.56;99530.59;5465634;32;35135;-75
2023/12/14 08:33:06;;;;;;;;;;;;;;;8.76;69.61;99525.69;5457744;32;34698;-68
2023/12/14 08:36:08;;;;;;;;;;;;;;;8.43;71.63;99526.28;5432946;32;35909;-75
2023/12/14 08:39:11;;;;;;;;;;;;;;;9.19;68.52;99530.66;5446068;32;34407;-68
2023/12/14 08:42:13;;;;;;;;;;;;;;;8.65;70.15;99534.06;5447355;32;36453;-76
2023/12/14 08:45:15;;;;;;;;;;;;;;;8.97;69.04;99540.47;5461987;32;34892;-69
2023/12/14 08:48:22;;;;;;;;;;;;;;;8.51;70.54;99549.53;5453115;32;34300;-74
2023/12/14 08:51:29;;;;;;;;;;;;;;;8.47;70.63;99546.19;5463970;32;37716;-80
2023/12/14 08:54:32;;;;;;;;;;;;;;;9.01;69.00;99543.78;5447954;32;36807;-82
2023/12/14 08:57:34;;;;;;;;;;;;;;;8.14;72.06;99548.47;5449528;32;34252;-81
2023/12/14 09:00:36;;;;;;;;;;;;;;;9.02;69.79;99546.34;5461479;32;34349;-76
2023/12/14 09:03:39;;;;;;;;;;;;;;;8.58;70.64;99557.06;5441150;32;34733;-78
2023/12/14 09:06:44;;;;;;;;;;;;;;;9.31;67.87;99557.25;5446614;32;34550;-80
2023/12/14 09:09:46;;;;;;;;;;;;;;;9.29;68.67;99561.72;5456670;32;35594;-80
2023/12/14 09:12:48;;;;;;;;;;;;;;;8.74;70.06;99572.09;5464433;32;34246;-84
2023/12/14 09:15:53;;;;;;;;;;;;;;;9.04;68.85;99572.47;5460319;32;34479;-75
2023/12/14 09:18:55;;;;;;;;;;;;;;;8.77;71.19;99578.06;5462039;32;34315;-77
2023/12/14 09:22:03;;;;;;;;;;;;;;;9.16;69.37;99572.78;5446662;32;34369;-76
2023/12/14 09:25:06;;;;;;;;;;;;;;;9.71;67.19;99567.53;5461297;32;34364;-76
2023/12/14 09:28:11;;;;;;;;;;;;;;;9.41;67.36;99569.84;5461648;32;35034;-70
2023/12/14 09:31:15;;;;;;;;;;;;;;;9.21;67.43;99570.78;5436625;32;34340;-75
2023/12/14 09:34:18;;;;;;;;;;;;;;;9.36;67.69;99578.88;5447667;32;35332;-80
2023/12/14 09:37:20;;;;;;;;;;;;;;;8.65;69.94;99594.31;5458286;32;34337;-71
2023/12/14 09:40:23;;;;;;;;;;;;;;;10.25;65.58;99585.94;5454338;32;34576;-78
2023/12/14 09:43:28;;;;;;;;;;;;;;;10.38;64.55;99588.78;5449451;32;35670;-72
2023/12/14 09:46:38;;;;;;;;;;;;;;;9.11;67.59;99597.50;5458339;32;34475;-68
2023/12/14 09:49:42;;;;;;;;;;;;;;;8.97;67.95;99603.38;5454832;32;34337;-69
2023/12/14 09:52:45;;;;;;;;;;;;;;;9.39;67.99;99603.16;5442370;32;35260;-71
2023/12/14 09:55:50;;;;;;;;;;;;;;;9.74;64.55;99596.25;5453637;32;34818;-68
2023/12/14 09:58:52;;;;;;;;;;;;;;;8.88;68.86;99603.75;5459537;32;34510;-72
2023/12/14 10:02:00;;;;;;;;;;;;;;;9.65;66.54;99596.69;5428413;32;36161;-76
2023/12/14 10:05:02;;;;;;;;;;;;;;;9.82;65.78;99605.53;5436773;32;34228;-83
2023/12/14 10:08:05;;;;;;;;;;;;;;;9.60;66.78;99611.81;5462085;32;35434;-77
2023/12/14 10:11:15;;;;;;;;;;;;;;;9.84;65.72;99612.37;5448786;32;34399;-72
2023/12/14 10:14:21;;;;;;;;;;;;;;;9.75;66.66;99618.94;5432622;32;34940;-71
2023/12/14 10:17:31;;;;;;;;;;;;;;;9.59;66.55;99619.72;5447011;32;35341;-70
2023/12/14 10:20:37;;;;;;;;;;;;;;;10.53;63.65;99615.09;5402936;32;941087;-73
2023/12/14 10:23:39;;;;;;;;;;;;;;;10.40;64.03;99621.06;5459383;32;34218;-71
2023/12/14 10:26:41;;;;;;;;;;;;;;;10.73;62.43;99621.13;5444469;32;34369;-72
2023/12/14 10:29:45;;;;;;;;;;;;;;;10.25;62.71;99627.94;5453557;32;35277;-68
2023/12/14 10:32:47;;;;;;;;;;;;;;;9.01;68.87;99641.59;5458984;32;34580;-71
2023/12/14 10:35:50;;;;;;;;;;;;;;;9.58;66.81;99639.03;5441120;32;34048;-70
2023/12/14 10:38:52;;;;;;;;;;;;;;;10.98;62.38;99633.84;5462221;32;34189;-71
2023/12/14 10:41:54;;;;;;;;;;;;;;;10.43;62.76;99634.91;5431296;32;34925;-73
2023/12/14 10:45:08;;;;;;;;;;;;;;;10.10;65.09;99640.00;5456931;32;35263;-74
2023/12/14 10:48:20;;;;;;;;;;;;;;;9.96;64.20;99650.31;5448928;32;36760;-71
2023/12/14 10:51:24;;;;;;;;;;;;;;;10.41;62.73;99643.78;5449263;32;35423;-70
2023/12/14 10:54:29;;;;;;;;;;;;;;;10.85;62.20;99649.41;5445264;32;35708;-76
2023/12/14 10:57:31;;;;;;;;;;;;;;;10.11;64.29;99651.34;5465187;32;34277;-74
2023/12/14 11:00:33;;;;;;;;;;;;;;;10.55;63.57;99657.06;5456878;32;34954;-74
2023/12/14 11:03:35;;;;;;;;;;;;;;;9.68;65.02;99670.00;5448952;32;35931;-76
2023/12/14 11:06:38;;;;;;;;;;;;;;;8.84;69.66;99675.59;5458759;32;35815;-74
2023/12/14 11:09:40;;;;;;;;;;;;;;;8.90;67.80;99681.41;5435778;32;34782;-75
2023/12/14 11:12:52;;;;;;;;;;;;;;;9.88;66.21;99666.44;5446323;32;34686;-69
2023/12/14 11:15:55;;;;;;;;;;;;;;;9.91;65.58;99681.19;5443445;32;34507;-72
2023/12/14 11:19:15;;;;;;;;;;;;;;;9.01;67.95;99694.03;5455639;32;34814;-73
2023/12/14 11:22:27;;;;;;;;;;;;;;;8.37;70.93;99686.28;5458128;32;35469;-74
2023/12/14 11:25:29;;;;;;;;;;;;;;;9.82;67.03;99679.88;5458550;32;35409;-72
2023/12/14 11:28:43;;;;;;;;;;;;;;;8.98;68.39;99688.09;5455387;32;34511;-71
2023/12/14 11:31:45;;;;;;;;;;;;;;;9.00;70.26;99689.72;5441490;32;33770;-72
2023/12/14 11:34:48;;;;;;;;;;;;;;;8.85;69.57;99682.53;5462141;32;35018;-73
2023/12/14 11:37:50;;;;;;;;;;;;;;;9.09;68.66;99688.47;5458379;32;35143;-71
2023/12/14 11:40:52;;;;;;;;;;;;;;;9.25;67.47;99696.50;5445595;32;34261;-74
2023/12/14 11:43:54;;;;;;;;;;;;;;;9.22;68.22;99687.84;5458191;32;34986;-73
2023/12/14 11:46:56;;;;;;;;;;;;;;;9.49;68.25;99695.41;5461656;32;35398;-69
2023/12/14 11:49:58;;;;;;;;;;;;;;;10.33;64.95;99687.97;5452348;32;35248;-74
2023/12/14 11:53:03;;;;;;;;;;;;;;;10.32;64.65;99687.13;5454051;32;34539;-72
2023/12/14 11:56:05;;;;;;;;;;;;;;;9.84;65.08;99698.16;5447595;32;34745;-77
2023/12/14 11:59:10;;;;;;;;;;;;;;;10.19;65.65;99699.97;5457588;32;35156;-73
2023/12/14 12:02:12;;;;;;;;;;;;;;;10.86;64.34;99698.41;5453504;32;34479;-81
2023/12/14 12:05:18;;;;;;;;;;;;;;;11.39;61.37;99702.66;5443010;32;34958;-78
2023/12/14 12:08:23;;;;;;;;;;;;;;;10.71;62.41;99699.19;5456836;32;34713;-76
2023/12/14 12:11:27;;;;;;;;;;;;;;;10.15;63.37;99705.44;5448101;32;35419;-74
2023/12/14 12:14:30;;;;;;;;;;;;;;;9.92;65.54;99717.03;5459719;32;34496;-72
2023/12/14 12:17:37;;;;;;;;;;;;;;;10.70;63.25;99697.50;5458038;32;34889;-73
2023/12/14 12:20:40;;;;;;;;;;;;;;;10.95;62.28;99712.84;5456384;32;34306;-79
2023/12/14 12:23:42;;;;;;;;;;;;;;;11.19;61.24;99708.09;5463200;32;34942;-74
2023/12/14 12:26:47;;;;;;;;;;;;;;;11.81;59.98;99707.41;5458665;32;36584;-80
2023/12/14 12:29:53;;;;;;;;;;;;;;;10.91;61.18;99714.81;5449223;32;34523;-86
2023/12/14 12:32:55;;;;;;;;;;;;;;;12.76;56.84;99723.12;5464479;32;34590;-77
2023/12/14 12:35:57;;;;;;;;;;;;;;;13.23;54.27;99719.47;5439385;32;34380;-80
2023/12/14 12:39:00;;;;;;;;;;;;;;;12.85;53.79;99725.19;5462105;32;35044;-80
2023/12/14 12:42:03;;;;;;;;;;;;;;;13.19;53.92;99737.22;5448504;32;35449;-76
2023/12/14 12:45:05;;;;;;;;;;;;;;;11.15;59.10;99749.53;5455355;32;34666;-74
2023/12/14 12:48:07;;;;;;;;;;;;;;;12.76;55.36;99736.31;5455290;32;34344;-78
2023/12/14 12:51:10;;;;;;;;;;;;;;;12.34;56.39;99745.72;5441463;32;34506;-70
2023/12/14 12:54:12;;;;;;;;;;;;;;;12.81;55.56;99743.91;5465652;32;34825;-77
2023/12/14 12:57:14;;;;;;;;;;;;;;;12.51;55.57;99749.19;5461118;32;35305;-71
2023/12/14 13:00:16;;;;;;;;;;;;;;;10.27;62.12;99778.41;5462410;32;34226;-85
2023/12/14 13:03:19;;;;;;;;;;;;;;;10.55;62.94;99775.31;5437313;32;34207;-85
2023/12/14 13:06:21;;;;;;;;;;;;;;;9.45;65.14;99789.09;5452288;32;34195;-85
2023/12/14 13:09:23;;;;;;;;;;;;;;;9.85;65.22;99791.72;5465068;32;35343;-76
2023/12/14 13:12:34;;;;;;;;;;;;;;;9.89;65.38;99788.03;5459353;32;34960;-73
2023/12/14 13:15:38;;;;;;;;;;;;;;;8.74;68.92;99797.41;5463326;32;34919;-73
2023/12/14 13:18:43;;;;;;;;;;;;;;;9.12;68.94;99804.53;5456217;32;34156;-73
2023/12/14 13:21:45;;;;;;;;;;;;;;;8.98;68.88;99804.25;5444500;32;33310;-82
2023/12/14 13:24:49;;;;;;;;;;;;;;;8.34;71.39;99812.06;5465350;32;36906;-83
2023/12/14 13:27:51;;;;;;;;;;;;;;;8.66;70.72;99821.28;5461447;32;34877;-77
2023/12/14 13:30:54;;;;;;;;;;;;;;;8.67;71.66;99816.00;5463599;32;35613;-78
2023/12/14 13:33:57;;;;;;;;;;;;;;;8.25;73.82;99818.53;5452308;32;34278;-79
2023/12/14 13:37:00;;;;;;;;;;;;;;;8.94;71.00;99821.88;5461004;32;35834;-78
2023/12/14 13:40:03;;;;;;;;;;;;;;;8.53;72.00;99833.19;5460475;32;34939;-78
2023/12/14 13:43:10;;;;;;;;;;;;;;;9.22;70.03;99832.06;5437900;32;35401;-71
2023/12/14 13:46:12;;;;;;;;;;;;;;;8.68;71.43;99846.50;5462953;32;34663;-77
2023/12/14 13:49:22;;;;;;;;;;;;;;;9.24;69.91;99847.72;5462357;32;34271;-79
2023/12/14 13:52:25;;;;;;;;;;;;;;;8.94;70.77;99855.94;5450212;32;34991;-77
2023/12/14 13:55:32;;;;;;;;;;;;;;;8.67;71.67;99857.06;5448422;32;33689;-79
2023/12/14 13:58:38;;;;;;;;;;;;;;;8.87;71.47;99869.34;5452034;32;34998;-75
2023/12/14 14:01:41;;;;;;;;;;;;;;;9.43;70.45;99869.63;5455064;32;34518;-77
2023/12/14 14:04:43;;;;;;;;;;;;;;;9.02;70.14;99878.37;5458374;32;37057;-81
2023/12/14 14:07:48;;;;;;;;;;;;;;;9.33;69.04;99888.44;5459321;32;35589;-76
2023/12/14 14:10:57;;;;;;;;;;;;;;;9.10;70.00;99899.91;5445834;32;34543;-76
2023/12/14 14:13:59;;;;;;;;;;;;;;;9.53;68.30;99898.94;5470097;32;38009;-77
2023/12/14 14:17:02;;;;;;;;;;;;;;;8.68;71.23;99905.91;5459727;32;35334;-83
2023/12/14 14:20:04;;;;;;;;;;;;;;;8.77;70.92;99902.09;5465871;32;34275;-73
2023/12/14 14:23:07;;;;;;;;;;;;;;;8.79;72.89;99908.13;5437097;32;34979;-78
2023/12/14 14:26:09;;;;;;;;;;;;;;;8.04;74.03;99910.91;5447939;32;34118;-76
2023/12/14 14:29:11;;;;;;;;;;;;;;;8.66;73.67;99916.47;5447204;32;33975;-73
2023/12/14 14:32:14;;;;;;;;;;;;;;;8.70;72.34;99919.81;5438953;32;34645;-78
2023/12/14 14:35:17;;;;;;;;;;;;;;;8.36;73.76;99941.19;5458470;32;37372;-77
2023/12/14 14:38:20;;;;;;;;;;;;;;;8.23;73.40;99942.50;5428976;32;35535;-78
2023/12/14 14:41:22;;;;;;;;;;;;;;;8.66;73.76;99947.03;5461358;32;34734;-82
2023/12/14 14:44:26;;;;;;;;;;;;;;;8.11;74.41;99955.16;5461513;32;35684;-73
2023/12/14 14:47:28;;;;;;;;;;;;;;;8.23;74.86;99945.97;5453990;32;35859;-75
2023/12/14 14:50:30;;;;;;;;;;;;;;;8.39;73.52;99946.31;5436354;32;36282;-80
2023/12/14 14:53:32;;;;;;;;;;;;;;;8.06;75.58;99949.22;5428667;32;34464;-79
2023/12/14 14:56:34;;;;;;;;;;;;;;;8.25;75.72;99954.66;5446972;32;33742;-81
2023/12/14 14:59:36;;;;;;;;;;;;;;;8.41;73.83;99954.97;5442613;32;35521;-72
2023/12/14 15:02:38;;;;;;;;;;;;;;;7.83;75.70;99962.25;5461305;32;34321;-76
2023/12/14 15:05:41;;;;;;;;;;;;;;;8.21;75.76;99965.28;5456474;32;34263;-78
2023/12/14 15:08:43;;;;;;;;;;;;;;;8.61;73.02;99970.78;5442392;32;34585;-82
2023/12/14 15:11:45;;;;;;;;;;;;;;;9.15;71.63;99974.84;5447797;32;34431;-78
2023/12/14 15:14:47;;;;;;;;;;;;;;;8.89;71.25;99977.63;5457971;32;34819;-78
2023/12/14 15:17:49;;;;;;;;;;;;;;;8.44;74.40;99991.53;5458087;32;34796;-75
2023/12/14 15:20:52;;;;;;;;;;;;;;;8.42;74.47;99988.09;5459176;32;34607;-78
2023/12/14 15:23:54;;;;;;;;;;;;;;;7.60;77.92;100005.75;5447832;32;35144;-77
2023/12/14 15:26:56;;;;;;;;;;;;;;;8.09;77.46;100009.31;5442774;32;35318;-79
2023/12/14 15:29:59;;;;;;;;;;;;;;;8.86;73.18;100022.28;5462215;32;34746;-77
2023/12/14 15:33:01;;;;;;;;;;;;;;;8.59;74.50;100022.41;5459181;32;33919;-77
2023/12/14 15:36:03;;;;;;;;;;;;;;;8.94;72.79;100020.22;5449732;32;37132;-78
2023/12/14 15:39:05;;;;;;;;;;;;;;;8.30;75.30;100031.25;5468449;32;34646;-78
2023/12/14 15:42:07;;;;;;;;;;;;;;;8.37;75.25;100039.78;5462899;32;34863;-78
2023/12/14 15:45:09;;;;;;;;;;;;;;;8.63;75.15;100042.34;5453229;32;34975;-79
2023/12/14 15:48:11;;;;;;;;;;;;;;;7.95;77.10;100056.03;5460707;32;35025;-78
2023/12/14 15:51:14;;;;;;;;;;;;;;;8.57;74.89;100054.81;5434832;32;34715;-77
2023/12/14 15:54:16;;;;;;;;;;;;;;;8.53;74.89;100059.28;5467134;32;35568;-78
2023/12/14 15:57:19;;;;;;;;;;;;;;;8.55;74.56;100067.09;5463317;32;35115;-78
2023/12/14 16:00:21;;;;;;;;;;;;;;;8.50;75.08;100064.66;5466401;32;35008;-80
2023/12/14 16:03:23;;;;;;;;;;;;;;;8.26;74.75;100075.94;5463136;32;34252;-81